sensor_id;sensor_type;location;lat;lon;timestamp;temperature;humidity
44707;DHT22;30433;45.596;8.408;2022-12-07T00:01:43;2.60;99.90
44707;DHT22;30433;45.596;8.408;2022-12-07T00:07:45;2.60;99.90
44707;DHT22;30433;45.596;8.408;2022-12-07T00:13:51;2.30;99.90
44707;DHT22;30433;45.596;8.408;2022-12-07T00:19:54;2.40;99.90
44707;DHT22;30433;45.596;8.408;2022-12-07T00:26:02;2.60;99.90
44707;DHT22;30433;45.596;8.408;2022-12-07T00:32:06;2.50;99.90
44707;DHT22;30433;45.596;8.408;2022-12-07T00:38:08;2.40;99.90
44707;DHT22;30433;45.596;8.408;2022-12-07T00:44:10;2.50;99.90
44707;DHT22;30433;45.596;8.408;2022-12-07T00:50:13;2.40;99.90
44707;DHT22;30433;45.596;8.408;2022-12-07T00:56:16;2.20;99.90
44707;DHT22;30433;45.596;8.408;2022-12-07T01:02:19;2.20;99.90
44707;DHT22;30433;45.596;8.408;2022-12-07T01:08:24;2.10;99.90
44707;DHT22;30433;45.596;8.408;2022-12-07T01:14:26;2.10;99.90
44707;DHT22;30433;45.596;8.408;2022-12-07T01:20:29;2.10;99.90
44707;DHT22;30433;45.596;8.408;2022-12-07T01:26:32;2.10;99.90
44707;DHT22;30433;45.596;8.408;2022-12-07T01:32:35;2.00;99.90
44707;DHT22;30433;45.596;8.408;2022-12-07T01:38:37;1.90;99.90
44707;DHT22;30433;45.596;8.408;2022-12-07T01:51:15;1.90;99.90
44707;DHT22;30433;45.596;8.408;2022-12-07T01:57:17;1.90;99.90
44707;DHT22;30433;45.596;8.408;2022-12-07T02:03:23;2.10;99.90
44707;DHT22;30433;45.596;8.408;2022-12-07T02:09:28;2.20;99.90
44707;DHT22;30433;45.596;8.408;2022-12-07T02:15:33;2.10;99.90
44707;DHT22;30433;45.596;8.408;2022-12-07T02:21:44;2.10;99.90
44707;DHT22;30433;45.596;8.408;2022-12-07T02:27:52;2.20;99.90
44707;DHT22;30433;45.596;8.408;2022-12-07T02:34:05;2.10;99.90
44707;DHT22;30433;45.596;8.408;2022-12-07T02:40:14;2.00;99.90
44707;DHT22;30433;45.596;8.408;2022-12-07T02:46:22;1.80;99.90
44707;DHT22;30433;45.596;8.408;2022-12-07T02:52:26;1.90;99.90
44707;DHT22;30433;45.596;8.408;2022-12-07T02:58:34;2.00;99.90
44707;DHT22;30433;45.596;8.408;2022-12-07T03:04:47;1.50;99.90
44707;DHT22;30433;45.596;8.408;2022-12-07T03:10:58;0.80;99.90
44707;DHT22;30433;45.596;8.408;2022-12-07T03:17:05;1.10;99.90
44707;DHT22;30433;45.596;8.408;2022-12-07T03:23:10;1.40;99.90
44707;DHT22;30433;45.596;8.408;2022-12-07T03:29:17;1.30;99.90
44707;DHT22;30433;45.596;8.408;2022-12-07T03:35:24;1.60;99.90
44707;DHT22;30433;45.596;8.408;2022-12-07T03:41:29;1.50;99.90
44707;DHT22;30433;45.596;8.408;2022-12-07T03:47:37;1.40;99.90
44707;DHT22;30433;45.596;8.408;2022-12-07T03:53:46;1.60;99.90
44707;DHT22;30433;45.596;8.408;2022-12-07T03:59:54;1.50;99.90
44707;DHT22;30433;45.596;8.408;2022-12-07T04:05:59;1.40;99.90
44707;DHT22;30433;45.596;8.408;2022-12-07T04:12:01;1.40;99.90
44707;DHT22;30433;45.596;8.408;2022-12-07T04:18:03;1.50;99.90
44707;DHT22;30433;45.596;8.408;2022-12-07T04:24:07;1.10;99.90
44707;DHT22;30433;45.596;8.408;2022-12-07T04:30:09;1.20;99.90
44707;DHT22;30433;45.596;8.408;2022-12-07T04:36:12;1.10;99.90
44707;DHT22;30433;45.596;8.408;2022-12-07T04:42:15;0.90;99.90
44707;DHT22;30433;45.596;8.408;2022-12-07T04:48:17;1.00;99.90
44707;DHT22;30433;45.596;8.408;2022-12-07T04:54:19;0.90;99.90
44707;DHT22;30433;45.596;8.408;2022-12-07T05:00:23;0.70;99.90
44707;DHT22;30433;45.596;8.408;2022-12-07T05:06:25;0.90;99.90
44707;DHT22;30433;45.596;8.408;2022-12-07T05:12:27;0.70;99.90
44707;DHT22;30433;45.596;8.408;2022-12-07T05:18:31;0.80;99.90
44707;DHT22;30433;45.596;8.408;2022-12-07T05:24:33;0.70;99.90
44707;DHT22;30433;45.596;8.408;2022-12-07T05:30:35;0.00;99.90
44707;DHT22;30433;45.596;8.408;2022-12-07T05:36:39;-0.10;99.90
44707;DHT22;30433;45.596;8.408;2022-12-07T05:42:41;0.20;99.90
44707;DHT22;30433;45.596;8.408;2022-12-07T05:48:44;0.50;99.90
44707;DHT22;30433;45.596;8.408;2022-12-07T05:54:47;-0.10;99.90
44707;DHT22;30433;45.596;8.408;2022-12-07T06:00:49;0.20;99.90
44707;DHT22;30433;45.596;8.408;2022-12-07T06:06:52;0.30;99.90
44707;DHT22;30433;45.596;8.408;2022-12-07T06:12:56;0.40;99.90
44707;DHT22;30433;45.596;8.408;2022-12-07T06:18:58;0.20;99.90
44707;DHT22;30433;45.596;8.408;2022-12-07T06:25:00;0.60;99.90
44707;DHT22;30433;45.596;8.408;2022-12-07T06:31:04;0.70;99.90
44707;DHT22;30433;45.596;8.408;2022-12-07T06:37:06;0.50;99.90
44707;DHT22;30433;45.596;8.408;2022-12-07T06:43:08;-0.30;99.90
44707;DHT22;30433;45.596;8.408;2022-12-07T06:49:12;0.00;99.90
44707;DHT22;30433;45.596;8.408;2022-12-07T06:55:14;0.40;99.90
44707;DHT22;30433;45.596;8.408;2022-12-07T07:01:18;0.40;99.90
44707;DHT22;30433;45.596;8.408;2022-12-07T07:07:21;0.60;99.90
44707;DHT22;30433;45.596;8.408;2022-12-07T07:13:23;0.60;99.90
44707;DHT22;30433;45.596;8.408;2022-12-07T07:19:25;0.30;99.90
44707;DHT22;30433;45.596;8.408;2022-12-07T07:25:29;0.80;99.90
44707;DHT22;30433;45.596;8.408;2022-12-07T07:31:31;1.00;99.90
44707;DHT22;30433;45.596;8.408;2022-12-07T07:37:36;0.90;99.90
44707;DHT22;30433;45.596;8.408;2022-12-07T07:43:39;1.10;99.90
44707;DHT22;30433;45.596;8.408;2022-12-07T07:49:41;1.40;99.90
44707;DHT22;30433;45.596;8.408;2022-12-07T07:55:50;1.60;99.90
44707;DHT22;30433;45.596;8.408;2022-12-07T08:01:54;1.80;99.90
44707;DHT22;30433;45.596;8.408;2022-12-07T08:07:57;2.10;99.90
44707;DHT22;30433;45.596;8.408;2022-12-07T08:14:00;2.50;99.90
44707;DHT22;30433;45.596;8.408;2022-12-07T08:20:05;2.80;99.90
44707;DHT22;30433;45.596;8.408;2022-12-07T08:26:09;2.80;99.90
44707;DHT22;30433;45.596;8.408;2022-12-07T08:32:12;3.10;99.90
44707;DHT22;30433;45.596;8.408;2022-12-07T08:38:16;3.40;99.90
44707;DHT22;30433;45.596;8.408;2022-12-07T08:44:18;3.60;99.90
44707;DHT22;30433;45.596;8.408;2022-12-07T08:50:22;3.50;99.90
44707;DHT22;30433;45.596;8.408;2022-12-07T08:56:26;3.90;99.90
44707;DHT22;30433;45.596;8.408;2022-12-07T09:02:30;3.80;99.90
44707;DHT22;30433;45.596;8.408;2022-12-07T09:08:34;4.10;99.90
44707;DHT22;30433;45.596;8.408;2022-12-07T09:14:39;4.10;99.90
44707;DHT22;30433;45.596;8.408;2022-12-07T09:20:42;4.30;99.90
44707;DHT22;30433;45.596;8.408;2022-12-07T09:26:44;4.20;99.90
44707;DHT22;30433;45.596;8.408;2022-12-07T09:32:47;4.40;99.90
44707;DHT22;30433;45.596;8.408;2022-12-07T09:38:49;4.40;99.90
44707;DHT22;30433;45.596;8.408;2022-12-07T09:44:52;4.50;99.90
44707;DHT22;30433;45.596;8.408;2022-12-07T09:50:57;4.60;99.90
44707;DHT22;30433;45.596;8.408;2022-12-07T09:56:59;4.90;99.90
44707;DHT22;30433;45.596;8.408;2022-12-07T10:03:02;5.30;99.90
44707;DHT22;30433;45.596;8.408;2022-12-07T10:09:11;5.40;99.90
44707;DHT22;30433;45.596;8.408;2022-12-07T10:15:13;5.60;99.90
44707;DHT22;30433;45.596;8.408;2022-12-07T10:21:17;5.60;99.90
44707;DHT22;30433;45.596;8.408;2022-12-07T10:27:29;5.60;99.90
44707;DHT22;30433;45.596;8.408;2022-12-07T10:33:36;5.80;99.90
44707;DHT22;30433;45.596;8.408;2022-12-07T10:39:42;6.00;99.90
44707;DHT22;30433;45.596;8.408;2022-12-07T10:46:04;6.00;99.90
44707;DHT22;30433;45.596;8.408;2022-12-07T10:52:17;6.30;99.90
44707;DHT22;30433;45.596;8.408;2022-12-07T10:58:35;6.00;99.90
44707;DHT22;30433;45.596;8.408;2022-12-07T11:04:47;6.30;99.90
44707;DHT22;30433;45.596;8.408;2022-12-07T11:10:53;6.40;99.90
44707;DHT22;30433;45.596;8.408;2022-12-07T11:16:59;6.50;99.90
44707;DHT22;30433;45.596;8.408;2022-12-07T11:23:18;6.70;99.90
44707;DHT22;30433;45.596;8.408;2022-12-07T11:36:09;6.70;99.90
44707;DHT22;30433;45.596;8.408;2022-12-07T11:42:22;6.90;99.90
44707;DHT22;30433;45.596;8.408;2022-12-07T11:48:32;7.10;99.90
44707;DHT22;30433;45.596;8.408;2022-12-07T11:54:36;7.30;99.90
44707;DHT22;30433;45.596;8.408;2022-12-07T12:00:44;7.30;99.90
44707;DHT22;30433;45.596;8.408;2022-12-07T12:06:46;7.10;99.90
44707;DHT22;30433;45.596;8.408;2022-12-07T12:13:02;7.00;99.90
44707;DHT22;30433;45.596;8.408;2022-12-07T12:19:22;7.40;99.90
44707;DHT22;30433;45.596;8.408;2022-12-07T12:25:29;7.40;99.90
44707;DHT22;30433;45.596;8.408;2022-12-07T12:31:35;7.40;99.90
44707;DHT22;30433;45.596;8.408;2022-12-07T12:37:46;7.30;99.90
44707;DHT22;30433;45.596;8.408;2022-12-07T12:43:50;7.40;99.90
44707;DHT22;30433;45.596;8.408;2022-12-07T12:50:15;7.60;99.90
44707;DHT22;30433;45.596;8.408;2022-12-07T12:56:32;7.60;99.90
44707;DHT22;30433;45.596;8.408;2022-12-07T13:02:38;7.60;99.90
44707;DHT22;30433;45.596;8.408;2022-12-07T13:08:49;7.60;99.90
44707;DHT22;30433;45.596;8.408;2022-12-07T13:14:57;7.80;99.90
44707;DHT22;30433;45.596;8.408;2022-12-07T13:21:00;7.40;99.90
44707;DHT22;30433;45.596;8.408;2022-12-07T13:27:06;7.50;99.90
44707;DHT22;30433;45.596;8.408;2022-12-07T13:33:11;7.80;99.90
44707;DHT22;30433;45.596;8.408;2022-12-07T13:39:19;7.80;99.90
44707;DHT22;30433;45.596;8.408;2022-12-07T13:45:25;7.80;99.90
44707;DHT22;30433;45.596;8.408;2022-12-07T13:51:49;7.60;99.90
44707;DHT22;30433;45.596;8.408;2022-12-07T13:57:53;7.40;99.90
44707;DHT22;30433;45.596;8.408;2022-12-07T14:03:55;7.80;99.90
44707;DHT22;30433;45.596;8.408;2022-12-07T14:10:01;7.80;99.90
44707;DHT22;30433;45.596;8.408;2022-12-07T14:16:05;7.80;99.90
44707;DHT22;30433;45.596;8.408;2022-12-07T14:22:23;7.70;99.90
44707;DHT22;30433;45.596;8.408;2022-12-07T14:28:28;7.60;99.90
44707;DHT22;30433;45.596;8.408;2022-12-07T14:34:31;7.60;99.90
44707;DHT22;30433;45.596;8.408;2022-12-07T14:40:33;7.50;99.90
44707;DHT22;30433;45.596;8.408;2022-12-07T14:46:37;7.40;99.90
44707;DHT22;30433;45.596;8.408;2022-12-07T14:52:40;7.30;99.90
44707;DHT22;30433;45.596;8.408;2022-12-07T14:58:43;6.80;99.90
44707;DHT22;30433;45.596;8.408;2022-12-07T15:04:46;6.80;99.90
44707;DHT22;30433;45.596;8.408;2022-12-07T15:10:49;6.60;99.90
44707;DHT22;30433;45.596;8.408;2022-12-07T15:16:51;6.20;99.90
44707;DHT22;30433;45.596;8.408;2022-12-07T15:22:54;6.20;99.90
44707;DHT22;30433;45.596;8.408;2022-12-07T15:28:57;6.20;99.90
44707;DHT22;30433;45.596;8.408;2022-12-07T15:34:59;5.80;99.90
44707;DHT22;30433;45.596;8.408;2022-12-07T15:41:03;5.70;99.90
44707;DHT22;30433;45.596;8.408;2022-12-07T15:47:08;5.60;99.90
44707;DHT22;30433;45.596;8.408;2022-12-07T15:53:11;5.50;99.90
44707;DHT22;30433;45.596;8.408;2022-12-07T15:59:15;5.10;99.90
44707;DHT22;30433;45.596;8.408;2022-12-07T16:05:18;5.00;99.90
44707;DHT22;30433;45.596;8.408;2022-12-07T16:11:20;4.70;99.90
44707;DHT22;30433;45.596;8.408;2022-12-07T16:17:24;4.60;99.90
44707;DHT22;30433;45.596;8.408;2022-12-07T16:23:27;4.20;99.90
44707;DHT22;30433;45.596;8.408;2022-12-07T16:29:29;3.50;99.90
44707;DHT22;30433;45.596;8.408;2022-12-07T16:35:33;4.10;99.90
44707;DHT22;30433;45.596;8.408;2022-12-07T16:41:35;4.40;99.90
44707;DHT22;30433;45.596;8.408;2022-12-07T16:47:38;3.50;99.90
44707;DHT22;30433;45.596;8.408;2022-12-07T16:53:42;3.50;99.90
44707;DHT22;30433;45.596;8.408;2022-12-07T16:59:45;3.10;99.90
44707;DHT22;30433;45.596;8.408;2022-12-07T17:05:47;2.50;99.90
44707;DHT22;30433;45.596;8.408;2022-12-07T17:11:51;2.60;99.90
44707;DHT22;30433;45.596;8.408;2022-12-07T17:17:54;2.70;99.90
44707;DHT22;30433;45.596;8.408;2022-12-07T17:23:58;2.20;99.90
44707;DHT22;30433;45.596;8.408;2022-12-07T17:30:02;2.90;99.90
44707;DHT22;30433;45.596;8.408;2022-12-07T17:36:10;2.80;99.90
44707;DHT22;30433;45.596;8.408;2022-12-07T17:42:12;2.80;99.90
44707;DHT22;30433;45.596;8.408;2022-12-07T17:48:33;2.80;99.90
44707;DHT22;30433;45.596;8.408;2022-12-07T17:54:36;2.80;99.90
44707;DHT22;30433;45.596;8.408;2022-12-07T18:00:38;2.10;99.90
44707;DHT22;30433;45.596;8.408;2022-12-07T18:06:43;2.40;99.90
44707;DHT22;30433;45.596;8.408;2022-12-07T18:12:47;2.60;99.90
44707;DHT22;30433;45.596;8.408;2022-12-07T18:18:49;2.40;99.90
44707;DHT22;30433;45.596;8.408;2022-12-07T18:24:55;1.90;99.90
44707;DHT22;30433;45.596;8.408;2022-12-07T18:30:56;0.90;99.90
44707;DHT22;30433;45.596;8.408;2022-12-07T18:36:59;1.50;99.90
44707;DHT22;30433;45.596;8.408;2022-12-07T18:43:03;1.80;99.90
44707;DHT22;30433;45.596;8.408;2022-12-07T18:49:05;2.00;99.90
44707;DHT22;30433;45.596;8.408;2022-12-07T18:55:08;1.90;99.90
44707;DHT22;30433;45.596;8.408;2022-12-07T19:01:12;0.80;99.90
44707;DHT22;30433;45.596;8.408;2022-12-07T19:07:14;1.60;99.90
44707;DHT22;30433;45.596;8.408;2022-12-07T19:13:17;1.90;99.90
44707;DHT22;30433;45.596;8.408;2022-12-07T19:19:22;1.00;99.90
44707;DHT22;30433;45.596;8.408;2022-12-07T19:25:25;0.70;99.90
44707;DHT22;30433;45.596;8.408;2022-12-07T19:31:27;0.80;99.90
44707;DHT22;30433;45.596;8.408;2022-12-07T19:37:31;1.30;99.90
44707;DHT22;30433;45.596;8.408;2022-12-07T19:43:34;1.30;99.90
44707;DHT22;30433;45.596;8.408;2022-12-07T19:49:36;1.20;99.90
44707;DHT22;30433;45.596;8.408;2022-12-07T19:55:40;1.40;99.90
44707;DHT22;30433;45.596;8.408;2022-12-07T20:01:43;0.90;99.90
44707;DHT22;30433;45.596;8.408;2022-12-07T20:07:45;1.30;99.90
44707;DHT22;30433;45.596;8.408;2022-12-07T20:13:50;1.40;99.90
44707;DHT22;30433;45.596;8.408;2022-12-07T20:19:52;1.20;99.90
44707;DHT22;30433;45.596;8.408;2022-12-07T20:25:59;0.90;99.90
44707;DHT22;30433;45.596;8.408;2022-12-07T20:32:04;1.00;99.90
44707;DHT22;30433;45.596;8.408;2022-12-07T20:38:07;1.40;99.90
44707;DHT22;30433;45.596;8.408;2022-12-07T20:44:11;1.30;99.90
44707;DHT22;30433;45.596;8.408;2022-12-07T20:50:15;1.10;99.90
44707;DHT22;30433;45.596;8.408;2022-12-07T20:56:18;1.20;99.90
44707;DHT22;30433;45.596;8.408;2022-12-07T21:02:21;1.40;99.90
44707;DHT22;30433;45.596;8.408;2022-12-07T21:08:25;1.50;99.90
44707;DHT22;30433;45.596;8.408;2022-12-07T21:14:27;1.30;99.90
44707;DHT22;30433;45.596;8.408;2022-12-07T21:20:29;1.20;99.90
44707;DHT22;30433;45.596;8.408;2022-12-07T21:26:34;1.40;99.90
44707;DHT22;30433;45.596;8.408;2022-12-07T21:32:36;1.40;99.90
44707;DHT22;30433;45.596;8.408;2022-12-07T21:38:39;1.50;99.90
44707;DHT22;30433;45.596;8.408;2022-12-07T21:44:43;1.50;99.90
44707;DHT22;30433;45.596;8.408;2022-12-07T21:50:45;1.20;99.90
44707;DHT22;30433;45.596;8.408;2022-12-07T21:56:48;0.60;99.90
44707;DHT22;30433;45.596;8.408;2022-12-07T22:02:52;1.20;99.90
44707;DHT22;30433;45.596;8.408;2022-12-07T22:08:54;1.10;99.90
44707;DHT22;30433;45.596;8.408;2022-12-07T22:14:56;0.50;99.90
44707;DHT22;30433;45.596;8.408;2022-12-07T22:21:11;1.10;99.90
44707;DHT22;30433;45.596;8.408;2022-12-07T22:27:13;1.10;99.90
44707;DHT22;30433;45.596;8.408;2022-12-07T22:33:16;1.00;99.90
44707;DHT22;30433;45.596;8.408;2022-12-07T22:39:20;1.00;99.90
44707;DHT22;30433;45.596;8.408;2022-12-07T22:45:23;1.10;99.90
44707;DHT22;30433;45.596;8.408;2022-12-07T22:51:27;1.10;99.90
44707;DHT22;30433;45.596;8.408;2022-12-07T22:57:30;1.10;99.90
44707;DHT22;30433;45.596;8.408;2022-12-07T23:03:33;1.20;99.90
44707;DHT22;30433;45.596;8.408;2022-12-07T23:09:35;1.20;99.90
44707;DHT22;30433;45.596;8.408;2022-12-07T23:15:39;0.40;99.90
44707;DHT22;30433;45.596;8.408;2022-12-07T23:21:41;0.90;99.90
44707;DHT22;30433;45.596;8.408;2022-12-07T23:27:43;0.10;99.90
44707;DHT22;30433;45.596;8.408;2022-12-07T23:33:47;-0.10;99.90
44707;DHT22;30433;45.596;8.408;2022-12-07T23:39:49;0.70;99.90
44707;DHT22;30433;45.596;8.408;2022-12-07T23:45:51;0.80;99.90
44707;DHT22;30433;45.596;8.408;2022-12-07T23:51:55;0.50;99.90
44707;DHT22;30433;45.596;8.408;2022-12-07T23:57:57;0.90;99.90
